createdAt,value
2019-04-25T00:01:55.669Z,56.45
2019-04-25T00:04:25.936Z,56.57
2019-04-25T00:06:55.879Z,56.14
2019-04-25T00:09:25.797Z,56.08
2019-04-25T00:11:55.732Z,55.90
2019-04-25T00:14:25.657Z,55.88
2019-04-25T00:16:55.591Z,56.16
2019-04-25T00:19:25.513Z,55.71
2019-04-25T00:21:55.459Z,55.63
2019-04-25T00:24:25.378Z,55.71
2019-04-25T00:26:55.315Z,55.51
2019-04-25T00:29:25.239Z,55.34
2019-04-25T00:34:34.522Z,56.05
2019-04-25T00:37:04.452Z,56.40
2019-04-25T00:39:34.776Z,56.58
2019-04-25T00:42:04.724Z,56.48
2019-04-25T00:44:34.637Z,56.18
2019-04-25T00:47:04.579Z,56.80
2019-04-25T00:49:34.526Z,57.54
2019-04-25T00:52:04.451Z,57.89
2019-04-25T00:54:34.371Z,57.84
2019-04-25T00:57:04.317Z,57.88
2019-04-25T00:59:34.583Z,57.53
2019-04-25T01:02:07.504Z,57.54
2019-04-25T01:04:34.759Z,57.49
2019-04-25T01:07:04.703Z,58.31
2019-04-25T01:09:34.946Z,57.41
2019-04-25T01:12:04.892Z,57.00
2019-04-25T01:14:34.822Z,57.19
2019-04-25T01:17:04.767Z,57.38
2019-04-25T01:19:34.683Z,58.01
2019-04-25T01:22:04.615Z,58.75
2019-04-25T01:24:34.562Z,58.26
2019-04-25T01:27:05.394Z,57.12
2019-04-25T01:29:34.448Z,57.20
2019-04-25T01:32:04.383Z,57.07
2019-04-25T01:34:34.354Z,56.98
2019-04-25T01:37:04.266Z,57.20
2019-04-25T01:39:34.516Z,57.24
2019-04-25T01:42:05.313Z,57.18
2019-04-25T01:44:34.966Z,56.95
2019-04-25T01:47:05.186Z,57.76
2019-04-25T01:49:35.149Z,58.77
2019-04-25T01:52:05.070Z,58.19
2019-04-25T01:54:35.009Z,58.63
2019-04-25T01:57:04.965Z,58.72
2019-04-25T01:59:35.260Z,58.44
2019-04-25T02:02:06.741Z,58.55
2019-04-25T02:04:35.127Z,58.46
2019-04-25T02:07:05.069Z,59.50
2019-04-25T02:09:34.995Z,59.05
2019-04-25T02:12:04.950Z,59.75
2019-04-25T02:14:34.876Z,59.49
2019-04-25T02:17:04.802Z,59.61
2019-04-25T02:19:35.707Z,59.70
2019-04-25T02:22:04.998Z,59.58
2019-04-25T02:24:35.196Z,59.50
2019-04-25T02:27:05.443Z,59.30
2019-04-25T02:29:35.376Z,59.10
2019-04-25T02:32:09.109Z,60.06
2019-04-25T02:34:35.254Z,59.69
2019-04-25T02:37:09.048Z,59.29
2019-04-25T02:39:37.367Z,59.21
2019-04-25T02:42:07.965Z,59.45
2019-04-25T02:44:35.301Z,59.58
2019-04-25T02:47:08.191Z,59.35
2019-04-25T02:49:39.411Z,59.72
2019-04-25T02:52:07.786Z,59.84
2019-04-25T02:54:35.637Z,59.34
2019-04-25T02:57:08.028Z,59.12
2019-04-25T02:59:36.991Z,59.04
2019-04-25T03:02:08.553Z,58.84
2019-04-25T03:04:35.669Z,59.15
2019-04-25T03:07:08.176Z,59.23
2019-04-25T03:09:35.833Z,59.80
2019-04-25T03:12:07.680Z,60.31
2019-04-25T03:14:36.257Z,60.39
2019-04-25T03:17:08.241Z,60.89
2019-04-25T03:19:36.100Z,61.07
2019-04-25T03:22:09.309Z,61.16
2019-04-25T03:24:36.323Z,61.09
2019-04-25T03:27:07.329Z,61.37
2019-04-25T03:29:36.179Z,60.60
2019-04-25T03:32:11.383Z,61.02
2019-04-25T03:34:36.040Z,60.81
2019-04-25T03:37:06.551Z,60.45
2019-04-25T03:39:36.223Z,61.36
2019-04-25T03:42:06.417Z,61.88
2019-04-25T03:44:36.629Z,61.28
2019-04-25T03:47:07.780Z,60.70
2019-04-25T03:49:36.518Z,62.49
2019-04-25T03:52:06.496Z,62.87
2019-04-25T03:54:36.378Z,62.54
2019-04-25T03:57:07.520Z,62.27
2019-04-25T03:59:36.835Z,62.09
2019-04-25T04:02:07.926Z,62.04
2019-04-25T04:04:36.691Z,62.03
2019-04-25T04:07:08.828Z,61.78
2019-04-25T04:09:36.902Z,63.12
2019-04-25T04:12:06.825Z,62.83
2019-04-25T04:14:36.748Z,63.01
2019-04-25T04:17:07.655Z,61.90
2019-04-25T04:19:36.949Z,61.23
2019-04-25T04:22:07.058Z,61.74
2019-04-25T04:24:36.801Z,63.65
2019-04-25T04:27:08.917Z,63.43
2019-04-25T04:29:36.656Z,62.47
2019-04-25T04:32:06.943Z,62.35
2019-04-25T04:34:36.843Z,64.45
2019-04-25T04:37:07.620Z,63.15
2019-04-25T04:39:36.740Z,62.49
2019-04-25T04:44:46.013Z,62.10
2019-04-25T04:47:16.684Z,61.86
2019-04-25T04:49:46.191Z,61.93
2019-04-25T04:52:17.001Z,62.19
2019-04-25T04:54:46.062Z,62.00
2019-04-25T04:57:26.559Z,61.39
2019-04-25T04:59:46.217Z,61.14
2019-04-25T05:02:17.327Z,61.31
2019-04-25T05:04:46.671Z,61.08
2019-04-25T05:07:17.515Z,61.18
2019-04-25T05:09:47.019Z,60.63
2019-04-25T05:12:17.507Z,60.42
2019-04-25T05:14:46.784Z,60.67
2019-04-25T05:17:17.616Z,60.41
2019-04-25T05:19:47.263Z,58.91
2019-04-25T05:22:18.206Z,57.56
2019-04-25T05:24:47.731Z,56.65
2019-04-25T05:27:32.335Z,55.95
2019-04-25T05:29:47.946Z,55.20
2019-04-25T05:32:18.167Z,55.04
2019-04-25T05:37:27.201Z,54.38
2019-04-25T05:39:57.442Z,54.62
2019-04-25T05:42:27.412Z,54.40
2019-04-25T05:44:57.338Z,53.86
2019-04-25T05:47:27.573Z,53.20
2019-04-25T05:49:57.799Z,53.19
2019-04-25T05:52:27.734Z,53.60
2019-04-25T05:54:57.648Z,53.64
2019-04-25T05:57:28.342Z,53.71
2019-04-25T05:59:57.859Z,53.88
2019-04-25T06:02:28.121Z,54.05
2019-04-25T06:04:58.032Z,54.15
2019-04-25T06:07:27.970Z,55.50
2019-04-25T06:09:57.892Z,55.75
2019-04-25T06:12:28.158Z,55.11
2019-04-25T06:14:58.056Z,54.45
2019-04-25T06:17:28.317Z,53.68
2019-04-25T06:19:58.245Z,53.78
2019-04-25T06:22:28.508Z,52.67
2019-04-25T06:24:58.442Z,52.38
2019-04-25T06:27:28.558Z,52.17
2019-04-25T06:30:00.856Z,51.74
2019-04-25T06:32:28.958Z,51.76
2019-04-25T06:34:58.168Z,51.85
2019-04-25T06:37:29.016Z,51.26
2019-04-25T06:39:58.611Z,50.53
2019-04-25T06:42:29.506Z,50.21
2019-04-25T06:44:58.590Z,50.07
2019-04-25T06:47:28.524Z,49.69
2019-04-25T06:49:58.806Z,49.33
2019-04-25T06:52:30.989Z,48.90
2019-04-25T06:54:58.666Z,48.94
2019-04-25T06:57:30.220Z,48.42
2019-04-25T06:59:58.529Z,47.83
2019-04-25T07:02:28.942Z,46.62
2019-04-25T07:04:58.392Z,46.00
2019-04-25T07:07:28.919Z,45.53
2019-04-25T07:09:58.311Z,44.86
2019-04-25T07:12:30.578Z,43.95
2019-04-25T07:14:58.480Z,42.65
2019-04-25T07:17:28.425Z,42.15
2019-04-25T07:19:58.652Z,41.44
2019-04-25T07:22:28.750Z,41.20
2019-04-25T07:24:58.525Z,40.77
2019-04-25T07:27:28.814Z,40.68
2019-04-25T07:29:58.730Z,41.13
2019-04-25T07:32:30.831Z,40.15
2019-04-25T07:37:41.583Z,40.43
2019-04-25T07:40:08.204Z,39.25
2019-04-25T07:42:38.128Z,39.81
2019-04-25T07:45:08.076Z,38.38
2019-04-25T07:47:38.005Z,37.97
2019-04-25T07:50:07.899Z,36.97
2019-04-25T07:52:37.928Z,36.63
2019-04-25T07:55:07.875Z,36.05
2019-04-25T07:57:38.641Z,36.23
2019-04-25T08:02:50.015Z,35.93
2019-04-25T08:05:19.950Z,34.88
2019-04-25T08:07:49.869Z,33.31
2019-04-25T08:10:19.820Z,32.94
2019-04-25T08:12:49.727Z,31.43
2019-04-25T08:17:59.328Z,31.40
2019-04-25T08:20:29.459Z,30.74
2019-04-25T08:22:59.198Z,30.16
2019-04-25T08:25:29.387Z,30.82
2019-04-25T08:27:59.046Z,31.05
2019-04-25T08:30:29.888Z,31.28
2019-04-25T08:32:59.521Z,32.33
2019-04-25T08:35:30.054Z,31.57
2019-04-25T08:37:59.361Z,31.16
2019-04-25T08:40:29.582Z,30.85
2019-04-25T08:42:59.515Z,30.54
2019-04-25T08:45:29.459Z,29.61
2019-04-25T08:47:59.391Z,29.53
2019-04-25T08:50:33.182Z,29.38
2019-04-25T08:52:59.245Z,28.76
2019-04-25T08:55:29.466Z,28.63
2019-04-25T08:57:59.396Z,29.02
2019-04-25T09:00:29.339Z,29.01
2019-04-25T09:02:59.274Z,29.76
2019-04-25T09:05:29.350Z,30.20
2019-04-25T09:07:59.247Z,30.09
2019-04-25T09:10:29.210Z,30.67
2019-04-25T09:12:59.125Z,31.90
2019-04-25T09:15:29.388Z,30.38
2019-04-25T09:17:59.316Z,30.89
2019-04-25T09:23:08.576Z,29.88
2019-04-25T09:25:38.681Z,30.49
2019-04-25T09:28:08.444Z,30.96
2019-04-25T09:30:38.502Z,32.86
2019-04-25T09:33:08.307Z,30.31
2019-04-25T09:38:17.863Z,30.21
2019-04-25T09:40:47.790Z,30.48
2019-04-25T09:43:17.715Z,30.19
2019-04-25T09:45:47.658Z,30.77
2019-04-25T09:48:17.573Z,30.32
2019-04-25T09:50:47.777Z,30.83
2019-04-25T09:53:23.523Z,32.16
2019-04-25T09:55:48.285Z,30.83
2019-04-25T09:58:17.374Z,30.40
2019-04-25T10:00:47.692Z,30.32
2019-04-25T10:03:17.524Z,30.49
2019-04-25T10:08:27.263Z,30.31
2019-04-25T10:10:57.224Z,30.10
2019-04-25T10:13:27.129Z,30.63
2019-04-25T10:16:02.727Z,29.65
2019-04-25T10:18:33.453Z,29.74
2019-04-25T10:21:04.180Z,30.33
2019-04-25T10:23:34.245Z,30.80
2019-04-25T10:26:03.822Z,31.17
2019-04-25T10:28:33.718Z,28.51
2019-04-25T10:31:03.746Z,28.31
2019-04-25T10:33:33.784Z,29.97
2019-04-25T10:36:04.184Z,29.13
2019-04-25T10:38:35.153Z,28.16
2019-04-25T10:41:04.279Z,29.37
2019-04-25T10:46:14.111Z,29.28
2019-04-25T10:48:43.990Z,28.45
2019-04-25T10:51:13.874Z,28.60
2019-04-25T10:53:45.619Z,27.44
2019-04-25T10:56:14.200Z,28.20
2019-04-25T10:58:45.408Z,28.35
2019-04-25T11:01:15.334Z,28.48
2019-04-25T11:03:44.543Z,29.42
2019-04-25T11:06:14.119Z,28.07
2019-04-25T11:08:44.898Z,27.92
2019-04-25T11:11:14.139Z,27.26
2019-04-25T11:13:45.179Z,26.37
2019-04-25T11:16:14.270Z,27.36
2019-04-25T11:18:45.380Z,26.22
2019-04-25T11:21:14.419Z,26.10
2019-04-25T11:23:47.568Z,26.41
2019-04-25T11:26:14.956Z,26.23
2019-04-25T11:28:45.264Z,26.97
2019-04-25T11:31:14.834Z,26.12
2019-04-25T11:33:45.124Z,26.41
2019-04-25T11:36:15.054Z,26.46
2019-04-25T11:38:45.327Z,25.95
2019-04-25T11:41:14.930Z,25.86
2019-04-25T11:43:46.319Z,25.68
2019-04-25T11:46:14.789Z,26.45
2019-04-25T11:48:45.482Z,25.40
2019-04-25T11:51:15.011Z,25.10
2019-04-25T11:53:47.149Z,24.71
2019-04-25T11:56:15.548Z,24.75
2019-04-25T11:58:46.824Z,24.77
2019-04-25T12:01:15.409Z,25.02
2019-04-25T12:03:47.449Z,24.83
2019-04-25T12:08:55.276Z,24.53
2019-04-25T12:11:24.901Z,24.61
2019-04-25T12:13:55.393Z,24.58
2019-04-25T12:19:04.843Z,24.26
2019-04-25T12:21:34.547Z,24.54
2019-04-25T12:24:05.900Z,24.46
2019-04-25T12:29:14.452Z,24.03
2019-04-25T12:31:46.299Z,24.51
2019-04-25T12:34:14.303Z,24.23
2019-04-25T12:39:24.344Z,24.31
2019-04-25T12:44:33.083Z,24.33
2019-04-25T12:47:03.384Z,23.95
2019-04-25T12:49:34.544Z,23.77
2019-04-25T12:52:03.501Z,23.52
2019-04-25T12:54:33.950Z,23.42
2019-04-25T12:57:04.389Z,23.46
2019-04-25T12:59:33.321Z,23.30
2019-04-25T13:02:04.589Z,22.96
2019-04-25T13:04:34.992Z,22.97
2019-04-25T13:07:04.066Z,22.93
2019-04-25T13:09:33.645Z,22.72
2019-04-25T13:12:04.391Z,23.25
2019-04-25T13:14:33.781Z,23.26
2019-04-25T13:17:06.701Z,22.89
2019-04-25T13:19:34.284Z,22.61
2019-04-25T13:22:04.981Z,23.35
2019-04-25T13:27:14.216Z,22.64
2019-04-25T13:29:43.399Z,22.95
2019-04-25T13:32:13.585Z,23.49
2019-04-25T13:34:44.999Z,23.66
2019-04-25T13:37:14.166Z,23.85
2019-04-25T13:39:44.193Z,23.83
2019-04-25T13:42:14.337Z,22.71
2019-04-25T13:44:44.283Z,22.67
2019-04-25T13:47:14.021Z,21.20
2019-04-25T13:49:43.171Z,21.34
2019-04-25T13:52:13.114Z,20.80
2019-04-25T13:54:43.637Z,21.43
2019-04-25T13:57:13.368Z,21.80
2019-04-25T13:59:44.349Z,20.93
2019-04-25T14:02:14.101Z,21.14
2019-04-25T14:04:44.238Z,20.87
2019-04-25T14:07:13.423Z,21.24
2019-04-25T14:12:23.898Z,21.53
2019-04-25T14:14:54.052Z,21.64
2019-04-25T14:17:24.490Z,21.71
2019-04-25T14:19:54.201Z,22.15
2019-04-25T14:22:23.377Z,21.90
2019-04-25T14:24:54.091Z,21.89
2019-04-25T14:27:24.754Z,22.10
2019-04-25T14:29:53.560Z,22.20
2019-04-25T14:32:26.165Z,21.95
2019-04-25T14:34:54.481Z,22.27
2019-04-25T14:37:26.329Z,22.41
2019-04-25T14:39:53.692Z,22.34
2019-04-25T14:42:24.514Z,22.63
2019-04-25T14:44:54.062Z,22.84
2019-04-25T14:47:24.485Z,22.14
2019-04-25T14:49:54.514Z,22.20
2019-04-25T14:52:24.557Z,22.53
2019-04-25T14:54:54.755Z,23.17
2019-04-25T14:57:24.685Z,22.87
2019-04-25T14:59:54.993Z,22.86
2019-04-25T15:02:25.726Z,22.38
2019-04-25T15:07:34.754Z,22.34
2019-04-25T15:10:04.771Z,22.91
2019-04-25T15:12:34.692Z,22.28
2019-04-25T15:15:04.693Z,22.83
2019-04-25T15:17:45.124Z,22.67
2019-04-25T15:20:04.857Z,22.77
2019-04-25T15:22:34.788Z,22.04
2019-04-25T15:25:06.375Z,22.01
2019-04-25T15:27:35.345Z,22.62
2019-04-25T15:30:04.864Z,22.84
2019-04-25T15:32:34.839Z,22.09
2019-04-25T15:35:04.723Z,21.81
2019-04-25T15:37:34.926Z,21.95
2019-04-25T15:40:04.872Z,21.84
2019-04-25T15:42:34.809Z,21.78
2019-04-25T15:45:04.740Z,21.74
2019-04-25T15:47:34.688Z,22.54
2019-04-25T15:52:45.003Z,23.48
2019-04-25T15:55:14.595Z,23.67
2019-04-25T15:57:44.530Z,22.77
2019-04-25T16:00:14.461Z,22.63
2019-04-25T16:02:44.848Z,23.40
2019-04-25T16:07:54.100Z,24.01
2019-04-25T16:10:24.012Z,24.45
2019-04-25T16:12:53.967Z,24.30
2019-04-25T16:15:23.882Z,24.55
2019-04-25T16:17:53.828Z,24.29
2019-04-25T16:20:23.743Z,24.45
2019-04-25T16:22:54.025Z,24.23
2019-04-25T16:25:23.952Z,23.54
2019-04-25T16:27:53.885Z,23.95
2019-04-25T16:30:23.816Z,23.97
2019-04-25T16:32:54.061Z,24.61
2019-04-25T16:35:23.979Z,24.56
2019-04-25T16:37:54.184Z,24.86
2019-04-25T16:40:24.114Z,24.72
2019-04-25T16:42:54.079Z,24.62
2019-04-25T16:45:24.322Z,25.18
2019-04-25T16:47:54.269Z,25.49
2019-04-25T16:50:24.218Z,25.91
2019-04-25T16:55:34.317Z,25.27
2019-04-25T16:58:03.732Z,26.27
2019-04-25T17:00:34.098Z,26.50
2019-04-25T17:03:03.590Z,26.29
2019-04-25T17:08:13.202Z,26.62
2019-04-25T17:10:43.113Z,26.84
2019-04-25T17:13:13.055Z,27.34
2019-04-25T17:15:43.246Z,26.90
2019-04-25T17:18:13.437Z,27.30
2019-04-25T17:20:43.365Z,27.72
2019-04-25T17:23:13.643Z,27.80
2019-04-25T17:25:43.835Z,28.32
2019-04-25T17:28:14.055Z,28.74
2019-04-25T17:30:44.271Z,28.23
2019-04-25T17:33:14.493Z,28.09
2019-04-25T17:38:24.079Z,29.22
2019-04-25T17:43:34.279Z,29.23
2019-04-25T17:46:03.815Z,29.61
2019-04-25T17:48:34.121Z,29.94
2019-04-25T17:51:03.672Z,30.74
2019-04-25T17:53:34.379Z,31.16
2019-04-25T17:58:43.528Z,30.90
2019-04-25T18:03:53.333Z,32.31
2019-04-25T18:06:23.255Z,32.99
2019-04-25T18:08:53.209Z,33.43
2019-04-25T18:11:23.435Z,34.03
2019-04-25T18:13:53.423Z,34.76
2019-04-25T18:16:23.673Z,35.64
2019-04-25T18:18:53.612Z,36.22
2019-04-25T18:21:23.530Z,36.05
2019-04-25T18:23:53.469Z,36.54
2019-04-25T18:26:23.501Z,36.69
2019-04-25T18:28:53.655Z,37.39
2019-04-25T18:31:23.870Z,37.74
2019-04-25T18:33:53.804Z,37.94
2019-04-25T18:39:03.053Z,38.47
2019-04-25T18:41:32.980Z,38.62
2019-04-25T18:44:03.304Z,38.71
2019-04-25T18:46:33.595Z,39.08
2019-04-25T18:49:03.529Z,38.64
2019-04-25T18:51:33.722Z,38.09
2019-04-25T18:54:03.661Z,38.16
2019-04-25T18:56:33.587Z,38.38
2019-04-25T18:59:03.514Z,38.27
2019-04-25T19:01:33.785Z,38.02
2019-04-25T19:04:03.723Z,37.95
2019-04-25T19:06:33.648Z,37.31
2019-04-25T19:09:03.942Z,36.52
2019-04-25T19:11:33.872Z,36.71
2019-04-25T19:14:04.063Z,37.18
2019-04-25T19:16:34.000Z,37.51
2019-04-25T19:19:03.927Z,37.92
2019-04-25T19:24:13.227Z,38.36
2019-04-25T19:26:44.663Z,38.85
2019-04-25T19:29:13.375Z,38.55
2019-04-25T19:34:22.720Z,38.79
2019-04-25T19:36:52.640Z,38.54
2019-04-25T19:39:22.876Z,38.70
2019-04-25T19:41:52.800Z,38.36
2019-04-25T19:44:22.726Z,38.10
2019-04-25T19:49:32.017Z,38.84
2019-04-25T19:52:01.931Z,38.57
2019-04-25T19:54:32.170Z,38.72
2019-04-25T19:57:02.717Z,38.98
2019-04-25T19:59:32.648Z,38.72
2019-04-25T20:02:02.573Z,39.00
2019-04-25T20:04:32.845Z,39.01
2019-04-25T20:07:03.119Z,39.36
2019-04-25T20:09:33.416Z,40.00
2019-04-25T20:12:03.389Z,40.08
2019-04-25T20:14:33.310Z,39.68
2019-04-25T20:17:03.272Z,39.84
2019-04-25T20:19:33.200Z,40.11
2019-04-25T20:22:03.132Z,40.15
2019-04-25T20:24:33.061Z,40.07
2019-04-25T20:27:03.296Z,39.63
2019-04-25T20:29:33.518Z,40.06
2019-04-25T20:32:03.842Z,40.00
2019-04-25T20:34:34.085Z,39.61
2019-04-25T20:37:04.341Z,39.65
2019-04-25T20:39:34.205Z,39.57
2019-04-25T20:42:04.133Z,39.73
2019-04-25T20:44:36.452Z,40.20
2019-04-25T20:47:03.994Z,40.01
2019-04-25T20:49:33.922Z,39.81
2019-04-25T20:52:03.856Z,39.74
2019-04-25T20:54:33.835Z,39.93
2019-04-25T20:57:03.772Z,39.38
2019-04-25T20:59:33.956Z,39.46
2019-04-25T21:02:03.892Z,39.60
2019-04-25T21:04:33.815Z,39.86
2019-04-25T21:07:03.752Z,40.03
2019-04-25T21:09:33.985Z,40.19
2019-04-25T21:12:03.916Z,40.03
2019-04-25T21:14:35.100Z,40.15
2019-04-25T21:17:03.779Z,40.60
2019-04-25T21:19:33.727Z,40.67
2019-04-25T21:22:03.657Z,40.47
2019-04-25T21:24:33.599Z,40.85
2019-04-25T21:27:03.538Z,40.62
2019-04-25T21:29:33.807Z,40.83
2019-04-25T21:34:43.353Z,41.06
2019-04-25T21:37:13.559Z,40.79
2019-04-25T21:39:43.473Z,40.87
2019-04-25T21:42:13.698Z,41.13
2019-04-25T21:44:43.917Z,41.19
2019-04-25T21:47:14.145Z,41.27
2019-04-25T21:49:44.063Z,41.05
2019-04-25T21:52:14.277Z,40.96
2019-04-25T21:54:44.508Z,40.82
2019-04-25T21:57:14.450Z,41.07
2019-04-25T21:59:44.375Z,41.21
2019-04-25T22:02:14.310Z,41.32
2019-04-25T22:04:44.493Z,41.68
2019-04-25T22:07:14.418Z,41.69
2019-04-25T22:09:44.339Z,41.96
2019-04-25T22:12:14.269Z,41.64
2019-04-25T22:14:44.184Z,41.91
2019-04-25T22:17:14.530Z,41.79
2019-04-25T22:19:44.466Z,42.18
2019-04-25T22:22:14.417Z,42.20
2019-04-25T22:24:44.578Z,42.39
2019-04-25T22:29:54.133Z,42.68
2019-04-25T22:32:24.068Z,42.70
2019-04-25T22:34:53.996Z,42.62
2019-04-25T22:37:23.923Z,42.63
2019-04-25T22:39:54.204Z,42.26
2019-04-25T22:42:24.418Z,42.19
2019-04-25T22:44:54.358Z,42.09
2019-04-25T22:47:24.276Z,42.07
2019-04-25T22:49:54.224Z,42.28
2019-04-25T22:52:24.162Z,42.44
2019-04-25T22:54:54.400Z,42.19
2019-04-25T22:57:24.732Z,42.65
2019-04-25T22:59:54.927Z,42.38
2019-04-25T23:02:24.843Z,42.65
2019-04-25T23:05:04.799Z,42.59
2019-04-25T23:07:24.726Z,42.61
2019-04-25T23:09:55.009Z,42.67
2019-04-25T23:12:24.839Z,42.55
2019-04-25T23:14:54.756Z,42.55
2019-04-25T23:17:24.950Z,42.67
2019-04-25T23:19:55.168Z,43.11
2019-04-25T23:22:25.384Z,43.11
2019-04-25T23:24:55.318Z,42.82
2019-04-25T23:27:25.249Z,42.85
2019-04-25T23:29:55.531Z,42.88
2019-04-25T23:32:25.702Z,43.15
2019-04-25T23:34:55.645Z,43.16
2019-04-25T23:37:25.903Z,43.15
2019-04-25T23:39:55.833Z,43.03
2019-04-25T23:42:26.151Z,42.97
2019-04-25T23:44:56.086Z,42.66
2019-04-25T23:47:26.360Z,42.31
2019-04-25T23:49:56.576Z,42.19
2019-04-25T23:55:06.781Z,42.23
2019-04-25T23:57:35.762Z,41.98
